Time;durP1;ratioP1;P1;durP2;ratioP2;P2;SDS_P1;SDS_P2;PMS_P1;PMS_P2;Temp;Humidity;BMP_temperature;BMP_pressure;BME280_temperature;BME280_humidity;BME280_pressure;Samples;Min_cycle;Max_cycle;Signal;HPM_P1;HPM_P2
2022/09/21 00:00:15;;;;;;;8.77;5.38;;;8.30;99.90;;;;;;5108176;28;20407;-71
2022/09/21 00:02:41;;;;;;;6.95;4.07;;;8.30;99.90;;;;;;5101761;28;20542;-71
2022/09/21 00:05:08;;;;;;;1.48;1.38;;;8.30;99.90;;;;;;5102367;28;20040;-71
2022/09/21 00:07:34;;;;;;;4.25;1.30;;;8.30;99.90;;;;;;5090617;28;20424;-71
2022/09/21 00:09:59;;;;;;;6.40;3.80;;;8.20;99.90;;;;;;5094005;28;20050;-71
2022/09/21 00:12:25;;;;;;;6.45;4.60;;;8.20;99.90;;;;;;5105134;28;20093;-71
2022/09/21 00:14:51;;;;;;;6.07;2.40;;;8.20;99.90;;;;;;5090208;28;20048;-71
2022/09/21 00:17:17;;;;;;;2.95;1.40;;;8.10;99.90;;;;;;5103640;28;20043;-71
2022/09/21 00:19:42;;;;;;;5.97;4.18;;;8.10;99.90;;;;;;5107872;28;20059;-71
2022/09/21 00:22:08;;;;;;;4.35;3.65;;;8.10;99.90;;;;;;5108415;28;20059;-71
2022/09/21 00:24:34;;;;;;;4.60;3.75;;;8.10;99.90;;;;;;5078943;28;20062;-71
2022/09/21 00:26:59;;;;;;;7.40;3.95;;;8.10;99.90;;;;;;5100753;28;20042;-71
2022/09/21 00:29:25;;;;;;;11.75;4.35;;;8.10;99.90;;;;;;5107164;28;20047;-71
2022/09/21 00:31:51;;;;;;;2.95;2.33;;;8.20;99.90;;;;;;5103329;28;20035;-71
2022/09/21 00:34:17;;;;;;;6.32;3.70;;;8.10;99.90;;;;;;5096885;28;20069;-71
2022/09/21 00:36:43;;;;;;;9.02;3.47;;;8.10;99.90;;;;;;5093975;28;20512;-71
2022/09/21 00:39:09;;;;;;;5.65;2.55;;;8.00;99.90;;;;;;5105383;28;20053;-71
2022/09/21 00:41:34;;;;;;;3.72;3.38;;;8.00;99.90;;;;;;5094261;28;20127;-71
2022/09/21 00:44:15;;;;;;;5.03;3.63;;;7.90;99.90;;;;;;5103388;28;20063;-70
2022/09/21 00:46:42;;;;;;;2.72;1.35;;;7.90;99.90;;;;;;5106920;28;20055;-70
2022/09/21 00:49:08;;;;;;;3.80;3.17;;;7.90;99.90;;;;;;5106411;28;20412;-71
2022/09/21 00:51:36;;;;;;;3.13;1.00;;;7.90;99.90;;;;;;5100394;28;20032;-70
2022/09/21 00:54:07;;;;;;;5.00;3.03;;;7.80;99.90;;;;;;5101506;28;20048;-70
2022/09/21 00:56:35;;;;;;;3.83;1.88;;;7.80;99.90;;;;;;5096222;28;20043;-71
2022/09/21 00:59:01;;;;;;;4.53;3.40;;;7.80;99.90;;;;;;5102589;28;20055;-71
2022/09/21 01:01:27;;;;;;;2.20;1.50;;;7.80;99.90;;;;;;5094392;28;20718;-70
2022/09/21 01:03:56;;;;;;;1.55;1.50;;;7.70;99.90;;;;;;5102866;28;20057;-70
2022/09/21 01:06:23;;;;;;;1.95;1.52;;;7.70;99.90;;;;;;5089780;28;20113;-70
2022/09/21 01:08:54;;;;;;;2.08;1.20;;;7.70;99.90;;;;;;5087769;28;20040;-71
2022/09/21 01:11:33;;;;;;;2.47;1.05;;;7.70;99.90;;;;;;5098998;28;20055;-71
2022/09/21 01:14:17;;;;;;;;;;;7.60;99.90;;;;;;5097716;28;20443;-71
2022/09/21 01:16:54;;;;;;;4.30;3.25;;;7.60;99.90;;;;;;5107491;28;19945;-70
2022/09/21 01:19:38;;;;;;;1.50;1.08;;;7.60;99.90;;;;;;5107522;28;20059;-70
2022/09/21 01:22:25;;;;;;;4.63;2.90;;;7.60;99.90;;;;;;5107753;28;20122;-70
2022/09/21 01:25:12;;;;;;;0.98;0.70;;;7.60;99.90;;;;;;5102294;28;20054;-70
2022/09/21 01:28:19;;;;;;;3.47;1.02;;;7.60;99.90;;;;;;5098817;28;20035;-70
2022/09/21 01:30:48;;;;;;;0.90;0.90;;;7.50;99.90;;;;;;5085504;28;20056;-71
2022/09/21 01:33:27;;;;;;;2.20;1.60;;;7.40;99.90;;;;;;5099928;28;20073;-70
2022/09/21 01:36:03;;;;;;;3.47;2.22;;;7.40;99.90;;;;;;5102028;28;20827;-70
2022/09/21 01:38:37;;;;;;;1.58;1.00;;;7.40;99.90;;;;;;5092815;28;20048;-70
2022/09/21 01:41:06;;;;;;;11.38;4.18;;;7.40;99.90;;;;;;5101469;28;20052;-71
2022/09/21 01:43:37;;;;;;;1.00;0.90;;;7.40;99.90;;;;;;5110535;28;20154;-71
2022/09/21 01:46:08;;;;;;;5.10;1.33;;;7.40;99.90;;;;;;5111894;28;20069;-70
2022/09/21 01:48:38;;;;;;;0.85;0.85;;;7.30;99.90;;;;;;5106584;28;20397;-70
2022/09/21 01:51:08;;;;;;;0.77;0.77;;;7.30;99.90;;;;;;5109342;28;20821;-71
2022/09/21 01:53:40;;;;;;;0.85;0.82;;;7.30;99.90;;;;;;5099533;28;20097;-70
2022/09/21 01:56:20;;;;;;;0.95;0.80;;;7.30;99.90;;;;;;5097578;28;20072;-70
2022/09/21 01:59:10;;;;;;;1.10;1.00;;;7.20;99.90;;;;;;5105472;28;20043;-70
2022/09/21 02:01:42;;;;;;;2.08;1.05;;;7.20;99.90;;;;;;5104421;28;20052;-71
2022/09/21 02:04:10;;;;;;;2.83;1.60;;;7.20;99.90;;;;;;5108721;28;20047;-71
2022/09/21 02:06:39;;;;;;;2.92;1.77;;;7.10;99.90;;;;;;5108792;28;20443;-71
2022/09/21 02:09:07;;;;;;;3.65;3.33;;;7.10;99.90;;;;;;5102969;28;20052;-70
2022/09/21 02:11:33;;;;;;;9.85;3.38;;;7.10;99.90;;;;;;5105324;28;20404;-71
2022/09/21 02:13:58;;;;;;;1.58;1.08;;;7.20;99.90;;;;;;5103924;28;20036;-71
2022/09/21 02:16:38;;;;;;;2.53;1.95;;;7.10;99.90;;;;;;5098164;28;20040;-70
2022/09/21 02:19:40;;;;;;;2.40;1.33;;;7.10;99.90;;;;;;5091873;28;20055;-70
2022/09/21 02:22:30;;;;;;;7.03;3.10;;;7.10;99.90;;;;;;5108325;28;20051;-71
2022/09/21 02:25:14;;;;;;;1.75;1.30;;;7.10;99.90;;;;;;5095690;28;20066;-70
2022/09/21 02:27:57;;;;;;;0.98;0.85;;;7.00;99.90;;;;;;5108557;28;20054;-70
2022/09/21 02:30:24;;;;;;;1.08;0.98;;;7.00;99.90;;;;;;5109314;28;20048;-70
2022/09/21 02:33:04;;;;;;;1.38;1.05;;;6.90;99.90;;;;;;5109265;28;20126;-70
2022/09/21 02:35:53;;;;;;;4.90;1.77;;;6.90;99.90;;;;;;5106563;28;20038;-70
2022/09/21 02:38:38;;;;;;;9.05;1.33;;;6.90;99.90;;;;;;5101604;28;20051;-70
2022/09/21 02:41:32;;;;;;;1.75;1.02;;;6.90;99.90;;;;;;5101041;28;20036;-70
2022/09/21 02:44:03;;;;;;;3.50;1.30;;;6.80;99.90;;;;;;5093988;28;20055;-71
2022/09/21 02:46:54;;;;;;;2.38;1.10;;;6.80;99.90;;;;;;5100538;28;20043;-70
2022/09/21 02:49:30;;;;;;;2.97;2.50;;;6.80;99.90;;;;;;5093261;28;20051;-70
2022/09/21 02:51:59;;;;;;;2.03;1.60;;;6.80;99.90;;;;;;5103637;28;20067;-70
2022/09/21 02:54:30;;;;;;;5.32;4.05;;;6.80;99.90;;;;;;5099634;28;20047;-71
2022/09/21 02:56:57;;;;;;;3.88;2.13;;;6.80;99.90;;;;;;5108510;28;20082;-71
2022/09/21 02:59:22;;;;;;;0.70;0.70;;;6.80;99.90;;;;;;5101531;28;20048;-70
2022/09/21 03:01:49;;;;;;;3.10;1.52;;;6.70;99.90;;;;;;5096711;28;20048;-71
2022/09/21 03:04:16;;;;;;;7.78;4.43;;;6.70;99.90;;;;;;5107118;28;20047;-70
2022/09/21 03:06:41;;;;;;;3.92;2.58;;;6.70;99.90;;;;;;5096962;28;20044;-70
2022/09/21 03:09:07;;;;;;;1.88;1.67;;;6.70;99.90;;;;;;5094676;28;20481;-71
2022/09/21 03:11:34;;;;;;;3.72;1.90;;;6.60;99.90;;;;;;5095961;28;20070;-71
2022/09/21 03:14:04;;;;;;;8.52;4.25;;;6.60;99.90;;;;;;5095896;28;20115;-70
2022/09/21 03:16:30;;;;;;;2.50;1.27;;;6.60;99.90;;;;;;5101228;28;20055;-71
2022/09/21 03:18:56;;;;;;;1.67;1.58;;;6.60;99.90;;;;;;5096023;28;20056;-70
2022/09/21 03:21:23;;;;;;;8.25;3.60;;;6.60;99.90;;;;;;5099292;28;20081;-71
2022/09/21 03:23:48;;;;;;;7.22;4.30;;;6.60;99.90;;;;;;5087768;28;20101;-71
2022/09/21 03:26:14;;;;;;;4.18;1.50;;;6.60;99.90;;;;;;5105454;28;20051;-71
2022/09/21 03:28:40;;;;;;;7.13;3.97;;;6.60;99.90;;;;;;5108749;28;20040;-70
2022/09/21 03:31:05;;;;;;;5.15;2.35;;;6.60;99.90;;;;;;5108300;28;20047;-71
2022/09/21 03:33:31;;;;;;;9.18;4.15;;;6.50;99.90;;;;;;5109034;28;20261;-71
2022/09/21 03:35:57;;;;;;;1.73;1.30;;;6.50;99.90;;;;;;5098388;28;20047;-71
2022/09/21 03:38:25;;;;;;;2.50;1.30;;;6.40;99.90;;;;;;5082796;28;20039;-71
2022/09/21 03:40:51;;;;;;;2.40;2.20;;;6.40;99.90;;;;;;5107455;28;20058;-71
2022/09/21 03:43:17;;;;;;;2.67;1.77;;;6.40;99.90;;;;;;5096820;28;20043;-71
2022/09/21 03:45:44;;;;;;;2.15;1.95;;;6.40;99.90;;;;;;5098569;28;20048;-72
2022/09/21 03:48:11;;;;;;;3.53;2.78;;;6.30;99.90;;;;;;5093025;28;20052;-71
2022/09/21 03:50:37;;;;;;;1.35;1.25;;;6.30;99.90;;;;;;5105287;28;20088;-71
2022/09/21 03:53:03;;;;;;;14.70;2.17;;;6.30;99.90;;;;;;5091110;28;20043;-71
2022/09/21 03:55:30;;;;;;;4.93;3.63;;;6.20;99.90;;;;;;5106379;28;20039;-71
2022/09/21 03:57:56;;;;;;;2.80;1.35;;;6.20;99.90;;;;;;5108843;28;20059;-71
2022/09/21 04:00:22;;;;;;;10.35;5.47;;;6.20;99.90;;;;;;5108107;28;20040;-71
2022/09/21 04:02:47;;;;;;;5.68;3.80;;;6.20;99.90;;;;;;5105497;28;20725;-70
2022/09/21 04:05:15;;;;;;;1.23;1.13;;;6.20;99.90;;;;;;5105565;28;20044;-71
2022/09/21 04:07:41;;;;;;;1.67;1.08;;;6.20;99.90;;;;;;5090824;28;20089;-70
2022/09/21 04:10:13;;;;;;;1.20;1.08;;;6.20;99.90;;;;;;5104346;28;20043;-70
2022/09/21 04:12:43;;;;;;;1.45;1.35;;;6.10;99.90;;;;;;5108048;28;20031;-70
2022/09/21 04:15:14;;;;;;;5.97;1.77;;;6.10;99.90;;;;;;5108313;28;20101;-71
2022/09/21 04:17:40;;;;;;;0.90;0.90;;;6.00;99.90;;;;;;5107163;28;20051;-71
2022/09/21 04:20:07;;;;;;;6.15;3.83;;;6.00;99.90;;;;;;5101821;28;20047;-71
2022/09/21 04:22:35;;;;;;;3.67;2.83;;;6.00;99.90;;;;;;5102650;28;20804;-71
2022/09/21 04:25:04;;;;;;;2.00;0.77;;;6.10;99.90;;;;;;5105363;28;20036;-71
2022/09/21 04:27:31;;;;;;;2.58;1.50;;;6.00;99.90;;;;;;5106995;28;20061;-70
2022/09/21 04:29:57;;;;;;;0.80;0.80;;;6.00;99.90;;;;;;5108403;28;20040;-70
2022/09/21 04:32:22;;;;;;;2.78;2.58;;;5.90;99.90;;;;;;5108524;28;20047;-71
2022/09/21 04:34:48;;;;;;;1.08;1.00;;;5.90;99.90;;;;;;5102222;28;20046;-71
2022/09/21 04:37:13;;;;;;;1.60;1.42;;;5.90;99.90;;;;;;5098758;28;20043;-71
2022/09/21 04:39:39;;;;;;;2.40;1.17;;;5.90;99.90;;;;;;5088310;28;20039;-71
2022/09/21 04:42:05;;;;;;;2.13;1.10;;;5.90;99.90;;;;;;5097486;28;20032;-71
2022/09/21 04:44:30;;;;;;;1.75;1.15;;;5.80;99.90;;;;;;5107754;28;20040;-71
2022/09/21 04:46:57;;;;;;;6.20;1.48;;;5.80;99.90;;;;;;5102456;28;20115;-71
2022/09/21 04:49:22;;;;;;;1.30;1.20;;;5.80;99.90;;;;;;5108009;28;20058;-71
2022/09/21 04:51:48;;;;;;;3.97;2.38;;;5.80;99.90;;;;;;5090938;28;20147;-70
2022/09/21 04:54:14;;;;;;;3.05;2.55;;;5.80;99.90;;;;;;5090740;28;20090;-70
2022/09/21 04:56:39;;;;;;;5.28;3.22;;;5.70;99.90;;;;;;5107383;28;20466;-71
2022/09/21 04:59:05;;;;;;;3.50;0.90;;;5.70;99.90;;;;;;5108499;28;20591;-71
2022/09/21 05:01:31;;;;;;;5.18;3.45;;;5.70;99.90;;;;;;5101045;28;20845;-71
2022/09/21 05:04:01;;;;;;;2.85;2.22;;;5.70;99.90;;;;;;5100519;28;20131;-71
2022/09/21 05:06:28;;;;;;;1.23;1.23;;;5.70;99.90;;;;;;5094926;28;20070;-71
2022/09/21 05:11:38;;;;;;;1.77;1.45;;;5.60;99.90;;;;;;5092381;28;20058;-71
2022/09/21 05:14:04;;;;;;;2.75;1.63;;;5.60;99.90;;;;;;5090680;28;20032;-71
2022/09/21 05:16:30;;;;;;;3.22;1.15;;;5.60;99.90;;;;;;5106992;28;20051;-71
2022/09/21 05:18:56;;;;;;;2.00;1.75;;;5.50;99.90;;;;;;5111023;28;20043;-71
2022/09/21 05:21:21;;;;;;;4.30;1.70;;;5.50;99.90;;;;;;5112169;28;20059;-71
2022/09/21 05:23:47;;;;;;;6.68;4.28;;;5.50;99.90;;;;;;5110458;28;20454;-71
2022/09/21 05:26:13;;;;;;;4.68;1.88;;;5.50;99.90;;;;;;5110214;28;20446;-71
2022/09/21 05:28:40;;;;;;;1.33;1.15;;;5.60;99.90;;;;;;5110224;28;20046;-71
2022/09/21 05:31:30;;;;;;;1.60;1.50;;;5.50;99.90;;;;;;5102422;28;20484;-71
2022/09/21 05:34:24;;;;;;;3.85;1.60;;;5.50;99.90;;;;;;5105317;28;20115;-71
2022/09/21 05:37:14;;;;;;;6.38;4.70;;;5.50;99.90;;;;;;5101967;28;20047;-71
2022/09/21 05:39:40;;;;;;;3.38;2.90;;;5.60;99.90;;;;;;5105313;28;20496;-71
2022/09/21 05:42:09;;;;;;;2.15;1.70;;;5.70;99.90;;;;;;5094970;28;20051;-71
2022/09/21 05:44:35;;;;;;;2.28;2.03;;;5.80;99.90;;;;;;5098779;28;20070;-71
2022/09/21 05:47:17;;;;;;;2.45;2.00;;;5.80;99.90;;;;;;5108776;28;20485;-71
2022/09/21 05:50:04;;;;;;;15.23;3.15;;;5.80;99.90;;;;;;5095108;28;20135;-71
2022/09/21 05:53:07;;;;;;;2.95;2.70;;;5.90;99.90;;;;;;5098466;28;20055;-71
2022/09/21 05:55:54;;;;;;;3.25;2.33;;;6.10;99.90;;;;;;5101619;28;20051;-70
2022/09/21 05:58:27;;;;;;;2.70;1.75;;;6.30;99.90;;;;;;5102868;28;20051;-71
2022/09/21 06:01:24;;;;;;;9.10;6.03;;;6.30;99.90;;;;;;5108980;28;20096;-71
2022/09/21 06:03:51;;;;;;;6.35;3.38;;;6.40;99.90;;;;;;5103173;28;20048;-71
2022/09/21 06:06:19;;;;;;;2.08;1.58;;;6.60;99.90;;;;;;5102044;28;20784;-70
2022/09/21 06:08:44;;;;;;;4.60;2.50;;;6.70;99.90;;;;;;5106227;28;20052;-70
2022/09/21 06:11:10;;;;;;;13.20;6.45;;;6.80;99.90;;;;;;5101242;28;20055;-70
2022/09/21 06:13:36;;;;;;;3.72;1.50;;;6.80;99.90;;;;;;5109710;28;20109;-70
2022/09/21 06:16:02;;;;;;;5.85;4.40;;;6.90;99.90;;;;;;5110645;28;20164;-70
2022/09/21 06:18:28;;;;;;;1.42;1.33;;;6.90;99.90;;;;;;5109990;28;20055;-70
2022/09/21 06:20:56;;;;;;;3.08;1.75;;;7.00;99.90;;;;;;5110034;28;20059;-70
2022/09/21 06:23:23;;;;;;;2.90;1.70;;;6.90;99.90;;;;;;5093165;28;20504;-70
2022/09/21 06:25:52;;;;;;;5.70;1.80;;;6.90;99.90;;;;;;5104416;28;20180;-70
2022/09/21 06:28:18;;;;;;;2.25;1.40;;;6.90;99.90;;;;;;5097006;28;20047;-70
2022/09/21 06:30:50;;;;;;;6.85;5.10;;;6.90;99.90;;;;;;5094998;28;20040;-69
2022/09/21 06:33:19;;;;;;;7.25;4.13;;;6.90;99.90;;;;;;5087937;28;20048;-70
2022/09/21 06:35:52;;;;;;;3.90;1.67;;;6.90;99.90;;;;;;5090456;28;20921;-70
2022/09/21 06:38:18;;;;;;;2.45;1.95;;;7.00;99.90;;;;;;5099890;28;20043;-70
2022/09/21 06:40:43;;;;;;;4.47;2.80;;;7.00;99.90;;;;;;5097849;28;20061;-70
2022/09/21 06:43:09;;;;;;;7.00;5.18;;;7.00;99.90;;;;;;5091829;28;20052;-69
2022/09/21 06:45:34;;;;;;;7.32;2.08;;;7.10;99.90;;;;;;5091969;28;20051;-69
2022/09/21 06:48:00;;;;;;;3.75;2.33;;;7.10;99.90;;;;;;5096191;28;20039;-69
2022/09/21 06:50:26;;;;;;;14.55;6.93;;;7.20;99.90;;;;;;5108288;28;20055;-70
2022/09/21 06:52:51;;;;;;;4.07;2.63;;;7.30;99.90;;;;;;5112131;27;20043;-69
2022/09/21 06:55:18;;;;;;;3.78;2.50;;;7.40;99.90;;;;;;5098289;27;20047;-70
2022/09/21 06:57:43;;;;;;;8.82;6.63;;;7.50;99.90;;;;;;5100681;28;20083;-69
2022/09/21 07:00:11;;;;;;;7.80;3.28;;;7.60;99.90;;;;;;5101369;28;20090;-69
2022/09/21 07:02:37;;;;;;;2.90;2.60;;;7.90;99.90;;;;;;5103215;28;20047;-70
2022/09/21 07:05:03;;;;;;;9.68;6.57;;;7.90;99.90;;;;;;5098856;27;20450;-70
2022/09/21 07:07:30;;;;;;;4.70;3.15;;;8.00;99.90;;;;;;5091330;28;20090;-70
2022/09/21 07:09:59;;;;;;;3.85;2.88;;;8.10;99.90;;;;;;5100421;28;20052;-70
2022/09/21 07:12:27;;;;;;;3.08;2.50;;;8.30;99.90;;;;;;5106897;28;20043;-70
2022/09/21 07:14:53;;;;;;;10.17;6.57;;;8.40;99.90;;;;;;5109375;28;20051;-70
2022/09/21 07:17:18;;;;;;;4.15;2.67;;;8.50;99.90;;;;;;5103266;28;20412;-70
2022/09/21 07:19:44;;;;;;;4.72;2.75;;;8.70;99.90;;;;;;5097421;28;20058;-70
2022/09/21 07:22:11;;;;;;;15.10;6.97;;;8.90;99.90;;;;;;5108030;28;20043;-70
2022/09/21 07:24:36;;;;;;;13.23;6.40;;;9.00;99.90;;;;;;5109045;28;20047;-70
2022/09/21 07:27:02;;;;;;;15.57;3.03;;;9.30;99.90;;;;;;5109843;28;20055;-70
2022/09/21 07:29:28;;;;;;;7.53;1.98;;;9.50;99.90;;;;;;5108353;28;20063;-70
2022/09/21 07:31:53;;;;;;;8.85;5.13;;;9.70;99.90;;;;;;5107811;28;20047;-70
2022/09/21 07:34:19;;;;;;;4.43;1.42;;;9.90;99.90;;;;;;5105979;28;20104;-70
2022/09/21 07:36:45;;;;;;;5.93;1.52;;;10.20;99.90;;;;;;5100204;28;20035;-70
2022/09/21 07:39:11;;;;;;;16.13;10.23;;;10.40;99.90;;;;;;5090548;28;20126;-71
2022/09/21 07:41:37;;;;;;;3.55;1.52;;;10.60;99.90;;;;;;5105557;27;20048;-70
2022/09/21 07:44:03;;;;;;;4.72;2.90;;;10.90;99.90;;;;;;5100711;28;20047;-70
2022/09/21 07:46:29;;;;;;;8.40;2.88;;;11.20;99.90;;;;;;5100087;28;20047;-70
2022/09/21 07:48:55;;;;;;;3.17;1.90;;;11.50;99.90;;;;;;5094661;28;20070;-71
2022/09/21 07:51:23;;;;;;;3.72;1.77;;;11.70;99.90;;;;;;5108846;28;20040;-71
2022/09/21 07:53:57;;;;;;;6.70;2.33;;;12.00;99.90;;;;;;5109139;28;20097;-70
2022/09/21 07:56:24;;;;;;;8.40;0.73;;;12.20;99.90;;;;;;5097620;28;20661;-70
2022/09/21 07:59:05;;;;;;;11.73;5.80;;;12.40;99.90;;;;;;5102616;28;20040;-69
2022/09/21 08:01:40;;;;;;;5.40;1.58;;;12.60;99.90;;;;;;5097828;28;20060;-70
2022/09/21 08:04:08;;;;;;;2.15;1.40;;;12.90;99.90;;;;;;5095887;28;20054;-70
2022/09/21 08:06:36;;;;;;;9.65;4.03;;;13.20;99.90;;;;;;5097112;28;20054;-70
2022/09/21 08:09:03;;;;;;;9.00;4.35;;;13.40;99.90;;;;;;5108855;28;20046;-70
2022/09/21 08:11:30;;;;;;;12.68;4.90;;;13.60;99.90;;;;;;5103059;27;20047;-70
2022/09/21 08:14:00;;;;;;;19.52;4.65;;;13.70;99.90;;;;;;5096294;28;20048;-70
2022/09/21 08:16:27;;;;;;;26.27;5.18;;;14.10;99.90;;;;;;5094807;27;20255;-70
2022/09/21 08:18:54;;;;;;;17.85;5.18;;;14.20;99.90;;;;;;5088753;28;20517;-70
2022/09/21 08:21:21;;;;;;;13.93;4.22;;;14.30;99.90;;;;;;5096866;28;20424;-70
2022/09/21 08:23:50;;;;;;;7.40;4.15;;;14.50;99.90;;;;;;5101979;28;20130;-70
2022/09/21 08:26:18;;;;;;;12.02;4.53;;;14.70;99.90;;;;;;5106360;28;20051;-70
2022/09/21 08:28:48;;;;;;;10.13;3.38;;;14.80;99.90;;;;;;5107695;28;20050;-70
2022/09/21 08:31:14;;;;;;;13.07;3.97;;;14.90;99.90;;;;;;5101036;28;20063;-70
2022/09/21 08:33:40;;;;;;;8.32;3.03;;;15.30;99.90;;;;;;5090158;28;20118;-69
2022/09/21 08:36:07;;;;;;;9.95;3.72;;;15.30;99.90;;;;;;5103093;28;20508;-69
2022/09/21 08:38:35;;;;;;;21.75;3.65;;;15.30;99.90;;;;;;5101609;28;20059;-69
2022/09/21 08:41:10;;;;;;;13.18;6.85;;;15.60;99.90;;;;;;5103564;28;20545;-69
2022/09/21 08:43:41;;;;;;;10.27;4.25;;;15.50;99.90;;;;;;5102684;28;20032;-69
2022/09/21 08:46:21;;;;;;;11.38;3.15;;;15.60;99.90;;;;;;5091330;28;20048;-69
2022/09/21 08:48:54;;;;;;;15.82;3.00;;;15.90;99.90;;;;;;5092711;28;20043;-69
2022/09/21 08:51:25;;;;;;;9.50;3.88;;;16.20;99.90;;;;;;5103501;28;20138;-69
2022/09/21 08:53:56;;;;;;;17.65;3.58;;;16.30;99.90;;;;;;5106716;28;20116;-69
2022/09/21 08:56:25;;;;;;;10.55;3.67;;;16.50;99.90;;;;;;5095697;28;20052;-69
2022/09/21 08:58:51;;;;;;;15.73;2.80;;;16.60;99.90;;;;;;5105916;28;20055;-69
2022/09/21 09:01:20;;;;;;;19.42;3.95;;;16.90;99.90;;;;;;5105145;28;20412;-69
2022/09/21 09:03:53;;;;;;;10.63;2.58;;;17.00;99.90;;;;;;5102350;28;20126;-69
2022/09/21 09:06:25;;;;;;;11.60;2.15;;;17.10;99.90;;;;;;5090317;28;20051;-70
2022/09/21 09:09:27;;;;;;;6.88;2.33;;;17.20;99.90;;;;;;5098155;28;20051;-69
2022/09/21 09:11:53;;;;;;;7.07;3.03;;;17.30;99.90;;;;;;5104909;28;20073;-70
2022/09/21 09:14:37;;;;;;;12.73;2.97;;;17.50;99.90;;;;;;5108079;28;20047;-69
2022/09/21 09:17:30;;;;;;;11.90;2.13;;;17.80;99.90;;;;;;5100555;28;20086;-69
2022/09/21 09:20:12;;;;;;;6.93;2.22;;;18.00;99.90;;;;;;5106200;28;20047;-69
2022/09/21 09:23:02;;;;;;;10.88;3.25;;;18.20;99.90;;;;;;5094889;28;20047;-70
2022/09/21 09:25:37;;;;;;;10.38;2.78;;;18.20;99.90;;;;;;5101881;28;20043;-70
2022/09/21 09:28:29;;;;;;;9.73;2.35;;;18.30;99.90;;;;;;5091551;28;20101;-69
2022/09/21 09:31:06;;;;;;;19.88;4.10;;;18.40;99.90;;;;;;5086762;28;20389;-69
2022/09/21 09:33:49;;;;;;;11.13;3.08;;;18.70;99.90;;;;;;5095912;28;20066;-69
2022/09/21 09:36:16;;;;;;;8.52;2.42;;;18.90;99.90;;;;;;5105698;28;20062;-69
2022/09/21 09:38:56;;;;;;;7.75;2.83;;;18.90;99.90;;;;;;5104789;28;20079;-69
2022/09/21 09:41:37;;;;;;;5.43;2.40;;;19.10;99.90;;;;;;5092574;28;20082;-69
2022/09/21 09:44:14;;;;;;;7.82;2.25;;;19.40;99.90;;;;;;5107729;28;20171;-70
2022/09/21 09:47:17;;;;;;;13.10;3.05;;;19.70;99.90;;;;;;5097040;28;20051;-70
2022/09/21 09:49:56;;;;;;;3.90;1.85;;;19.50;99.90;;;;;;5099335;28;20071;-70
2022/09/21 09:52:22;;;;;;;12.02;3.25;;;19.70;99.90;;;;;;5096210;28;20055;-70
2022/09/21 09:54:48;;;;;;;9.10;1.60;;;19.80;99.90;;;;;;5107685;28;20046;-71
2022/09/21 09:57:19;;;;;;;12.45;2.38;;;19.70;99.90;;;;;;5104610;28;20131;-71
2022/09/21 09:59:54;;;;;;;11.68;2.55;;;19.80;99.90;;;;;;5099264;28;20048;-71
2022/09/21 10:02:27;;;;;;;8.45;1.35;;;19.70;97.10;;;;;;5094295;28;20416;-71
2022/09/21 10:05:08;;;;;;;6.00;1.88;;;19.90;98.70;;;;;;5109509;28;20054;-71
2022/09/21 10:07:39;;;;;;;5.15;2.28;;;20.30;96.60;;;;;;5099810;28;20820;-71
2022/09/21 10:10:28;;;;;;;6.07;2.00;;;20.50;98.20;;;;;;5100637;28;20044;-72
2022/09/21 10:13:11;;;;;;;13.75;3.03;;;20.70;92.60;;;;;;5093956;28;20108;-72
2022/09/21 10:15:49;;;;;;;16.10;3.20;;;20.80;93.30;;;;;;5111095;28;20051;-73
2022/09/21 10:18:17;;;;;;;;;;;21.10;91.90;;;;;;5100312;28;20132;-73
2022/09/21 10:21:14;;;;;;;9.52;3.33;;;20.90;86.30;;;;;;5104945;28;20054;-74
2022/09/21 10:24:10;;;;;;;4.70;2.35;;;21.10;92.60;;;;;;5091776;28;20101;-74
2022/09/21 10:26:44;;;;;;;7.57;3.73;;;21.00;90.90;;;;;;5095000;28;20159;-74
2022/09/21 10:29:21;;;;;;;10.57;3.72;;;21.40;90.10;;;;;;5106332;28;20047;-75
2022/09/21 10:31:58;;;;;;;9.35;3.08;;;21.60;85.30;;;;;;5108987;28;20040;-73
2022/09/21 10:34:26;;;;;;;14.80;4.20;;;21.90;89.50;;;;;;5108319;28;20040;-72
2022/09/21 10:36:55;;;;;;;12.88;2.40;;;22.00;88.80;;;;;;5099936;28;20074;-73
2022/09/21 10:39:26;;;;;;;7.32;3.72;;;21.80;82.30;;;;;;5094374;28;20478;-73
2022/09/21 10:41:53;;;;;;;5.68;2.75;;;21.40;80.60;;;;;;5105852;28;20122;-72
2022/09/21 10:44:24;;;;;;;5.78;2.25;;;21.20;83.30;;;;;;5094588;28;20066;-72
2022/09/21 10:46:51;;;;;;;11.50;2.40;;;21.00;82.50;;;;;;5092592;28;20097;-72
2022/09/21 10:49:26;;;;;;;11.43;2.78;;;20.90;82.80;;;;;;5097901;28;20043;-72
2022/09/21 10:51:56;;;;;;;9.38;1.67;;;20.90;79.60;;;;;;5100630;28;20098;-71
2022/09/21 10:54:30;;;;;;;8.05;1.65;;;21.10;79.20;;;;;;5111386;28;20062;-72
2022/09/21 10:57:03;;;;;;;4.22;1.90;;;21.00;79.10;;;;;;5107447;28;20048;-72
2022/09/21 10:59:35;;;;;;;8.85;1.67;;;20.90;76.50;;;;;;5090297;28;20056;-72
2022/09/21 11:02:21;;;;;;;5.00;2.22;;;20.80;74.80;;;;;;5093848;28;20069;-71
2022/09/21 11:04:52;;;;;;;5.78;1.48;;;20.90;75.70;;;;;;5103329;28;20126;-71
2022/09/21 11:07:33;;;;;;;3.72;1.38;;;20.90;75.70;;;;;;5090812;28;20036;-71
2022/09/21 11:10:18;;;;;;;6.68;2.75;;;20.70;75.20;;;;;;5100906;28;20590;-71
2022/09/21 11:13:15;;;;;;;8.82;2.55;;;20.50;74.50;;;;;;5094898;28;20048;-71
2022/09/21 11:15:56;;;;;;;11.18;2.97;;;20.60;76.30;;;;;;5108577;28;20051;-71
2022/09/21 11:18:45;;;;;;;6.88;1.75;;;20.60;75.40;;;;;;5100665;28;20132;-71
2022/09/21 11:21:18;;;;;;;4.20;1.38;;;20.80;68.50;;;;;;5093079;28;20105;-71
2022/09/21 11:23:57;;;;;;;5.78;1.40;;;21.00;70.70;;;;;;5095391;28;20138;-71
2022/09/21 11:26:58;;;;;;;3.92;2.38;;;20.90;68.30;;;;;;5109091;28;20087;-68
2022/09/21 11:29:30;;;;;;;9.43;2.28;;;20.90;67.10;;;;;;5107964;28;20081;-70
2022/09/21 11:32:14;;;;;;;6.22;1.70;;;20.80;67.80;;;;;;5101287;28;20048;-70
2022/09/21 11:34:57;;;;;;;3.70;1.40;;;20.70;68.20;;;;;;5094643;28;20040;-69
2022/09/21 11:37:45;;;;;;;9.32;1.88;;;20.60;71.00;;;;;;5094252;28;20127;-69
2022/09/21 11:40:29;;;;;;;6.60;1.88;;;20.60;73.90;;;;;;5088226;28;20540;-69
2022/09/21 11:43:03;;;;;;;2.30;1.58;;;20.70;70.80;;;;;;5104690;28;20396;-69
2022/09/21 11:45:59;;;;;;;4.72;2.67;;;20.50;71.60;;;;;;5096028;28;20044;-69
2022/09/21 11:48:33;;;;;;;8.80;2.97;;;20.70;70.70;;;;;;5087816;28;20059;-69
2022/09/21 11:51:17;;;;;;;9.43;2.35;;;20.70;67.20;;;;;;5098375;28;20492;-69
2022/09/21 11:54:12;;;;;;;15.73;3.15;;;20.80;69.00;;;;;;5100800;28;20670;-69
2022/09/21 11:56:52;;;;;;;6.85;1.98;;;20.90;67.40;;;;;;5098493;28;20134;-69
2022/09/21 11:59:39;;;;;;;11.20;3.30;;;20.90;68.80;;;;;;5100177;28;20079;-69
2022/09/21 12:02:40;;;;;;;4.53;1.67;;;21.20;68.90;;;;;;5103888;28;20428;-69
2022/09/21 12:05:37;;;;;;;7.20;1.95;;;21.40;68.30;;;;;;5065990;28;20104;-69
2022/09/21 12:08:09;;;;;;;4.05;1.80;;;21.50;65.30;;;;;;5091796;28;20451;-69
2022/09/21 12:10:37;;;;;;;8.05;2.95;;;21.20;66.20;;;;;;5100339;27;20428;-69
2022/09/21 12:13:15;;;;;;;8.85;2.60;;;21.10;66.30;;;;;;5100429;27;20098;-69
2022/09/21 12:16:04;;;;;;;7.63;1.92;;;21.10;64.60;;;;;;5090106;28;20040;-69
2022/09/21 12:19:03;;;;;;;6.38;2.08;;;21.10;66.90;;;;;;5103682;27;20048;-70
2022/09/21 12:21:47;;;;;;;8.07;2.25;;;21.00;67.40;;;;;;5120919;27;20100;-69
2022/09/21 12:24:20;;;;;;;4.95;1.92;;;20.70;61.90;;;;;;5106469;28;20065;-69
2022/09/21 12:26:51;;;;;;;10.23;2.22;;;20.40;66.80;;;;;;5099188;28;20063;-69
2022/09/21 12:29:36;;;;;;;4.70;1.80;;;20.40;66.80;;;;;;5102511;28;20153;-69
2022/09/21 12:32:20;;;;;;;6.28;1.90;;;20.60;64.70;;;;;;5097913;28;20048;-69
2022/09/21 12:34:52;;;;;;;11.32;1.98;;;20.80;66.80;;;;;;5102784;28;20130;-69
2022/09/21 12:37:31;;;;;;;8.20;2.50;;;20.70;66.60;;;;;;5108074;28;20044;-69
2022/09/21 12:40:12;;;;;;;3.53;1.70;;;20.60;67.60;;;;;;5101683;28;20047;-69
2022/09/21 12:43:25;;;;;;;5.75;1.20;;;20.70;68.60;;;;;;5100823;28;20081;-69
2022/09/21 12:45:57;;;;;;;6.05;1.95;;;20.70;67.30;;;;;;5091966;28;20408;-69
2022/09/21 12:48:37;;;;;;;1.67;1.15;;;20.70;66.70;;;;;;5099995;28;20134;-69
2022/09/21 12:51:33;;;;;;;9.95;2.10;;;20.60;66.00;;;;;;5098314;28;20527;-69
2022/09/21 12:54:07;;;;;;;5.40;2.00;;;20.50;65.90;;;;;;5102597;28;20059;-69
2022/09/21 12:57:02;;;;;;;3.83;1.52;;;20.40;66.50;;;;;;5097654;28;20056;-69
2022/09/21 12:59:42;;;;;;;4.50;1.70;;;20.20;65.90;;;;;;5095690;28;20059;-69
2022/09/21 13:02:17;;;;;;;4.03;1.48;;;20.10;67.00;;;;;;5098200;28;20122;-69
2022/09/21 13:05:01;;;;;;;4.57;1.75;;;20.20;69.30;;;;;;5100192;28;20054;-69
2022/09/21 13:07:58;;;;;;;9.35;2.67;;;20.10;71.20;;;;;;5098939;28;20055;-69
2022/09/21 13:10:39;;;;;;;13.57;2.23;;;20.20;70.60;;;;;;5101323;28;20051;-69
2022/09/21 13:13:16;;;;;;;9.60;2.05;;;20.00;70.40;;;;;;5097683;28;20051;-69
2022/09/21 13:15:46;;;;;;;5.60;1.83;;;19.90;69.20;;;;;;5098831;28;20048;-69
2022/09/21 13:18:25;;;;;;;9.25;2.08;;;20.00;69.80;;;;;;5098722;28;20082;-69
2022/09/21 13:20:53;;;;;;;5.35;1.85;;;19.90;68.60;;;;;;5099327;28;20165;-69
2022/09/21 13:23:28;;;;;;;4.72;1.75;;;19.90;68.30;;;;;;5099128;28;20051;-69